createdAt,value
2019-02-19T06:49:53.641Z,31.40
2019-02-19T06:52:28.398Z,31.60
2019-02-19T06:55:02.273Z,31.90
2019-02-19T06:57:32.855Z,31.90
2019-02-19T07:00:03.410Z,31.30
2019-02-19T07:02:40.772Z,31.60
2019-02-19T07:05:17.354Z,31.70
2019-02-19T07:07:47.640Z,31.80
2019-02-19T07:10:18.307Z,31.40
2019-02-19T07:12:48.959Z,31.30
2019-02-19T07:15:19.618Z,30.80
2019-02-19T07:17:52.741Z,30.80
2019-02-19T07:20:28.019Z,30.70
2019-02-19T07:25:54.451Z,30.60
2019-02-19T07:28:31.888Z,30.70
2019-02-19T07:33:57.169Z,31.20
2019-02-19T07:36:28.166Z,30.60
2019-02-19T07:40:46.801Z,29.70
2019-02-19T07:46:15.917Z,30.40
2019-02-19T07:59:53.570Z,30.70
2019-02-19T08:02:38.947Z,30.40
2019-02-19T08:13:54.583Z,29.60
2019-02-19T08:24:35.625Z,28.40
2019-02-19T08:27:13.149Z,29.50
2019-02-19T08:32:49.875Z,30.70
2019-02-19T08:35:20.218Z,31.50
2019-02-19T08:37:52.609Z,31.60
2019-02-19T08:40:28.977Z,32.10
2019-02-19T08:43:01.206Z,31.70
2019-02-19T08:45:35.728Z,31.60
2019-02-19T08:48:10.995Z,31.80
2019-02-19T08:50:46.568Z,31.60
2019-02-19T09:03:59.144Z,32.20
2019-02-19T09:09:45.516Z,32.90
2019-02-19T09:18:06.847Z,32.10
2019-02-19T09:23:31.533Z,31.60
2019-02-19T09:29:14.581Z,32.70
2019-02-19T09:31:50.420Z,33.00
2019-02-19T09:34:25.389Z,33.40
2019-02-19T09:37:26.102Z,34.10
2019-02-19T09:40:04.445Z,34.10
2019-02-19T09:42:35.046Z,34.50
2019-02-19T09:45:21.645Z,34.80
2019-02-19T09:50:52.600Z,35.30
2019-02-19T09:55:55.734Z,35.50
2019-02-19T10:01:19.687Z,34.90
2019-02-19T10:03:53.306Z,35.00
2019-02-19T10:06:24.013Z,35.00
2019-02-19T10:08:55.082Z,35.10
2019-02-19T10:14:05.674Z,36.60
2019-02-19T10:19:16.499Z,35.10
2019-02-19T10:21:47.106Z,35.60
2019-02-19T10:29:39.340Z,37.00
2019-02-19T10:34:48.525Z,37.80
2019-02-19T10:37:18.700Z,37.80
2019-02-19T10:39:49.165Z,37.90
2019-02-19T10:42:22.234Z,38.10
2019-02-19T10:44:56.308Z,39.00
2019-02-19T10:47:27.135Z,38.20
2019-02-19T10:52:59.399Z,38.00
2019-02-19T10:58:04.759Z,38.50
2019-02-19T11:00:38.145Z,38.40
2019-02-19T11:03:10.844Z,38.60
2019-02-19T11:05:47.608Z,38.10
2019-02-19T11:08:17.924Z,36.60
2019-02-19T11:10:54.170Z,35.60
2019-02-19T11:13:25.715Z,34.60
2019-02-19T11:16:16.881Z,35.00
2019-02-19T11:18:39.251Z,35.40
2019-02-19T11:23:47.048Z,35.50
2019-02-19T11:26:21.921Z,35.50
2019-02-19T11:28:54.417Z,35.60
2019-02-19T11:31:27.420Z,35.60
2019-02-19T11:34:04.903Z,36.30
2019-02-19T11:36:38.376Z,36.20
2019-02-19T11:44:31.846Z,36.30
2019-02-19T11:47:06.443Z,36.40
2019-02-19T11:49:44.955Z,36.20
2019-02-19T11:57:55.376Z,35.90
2019-02-19T12:00:32.786Z,36.00
2019-02-19T12:03:03.132Z,36.20
2019-02-19T12:05:35.063Z,35.70
2019-02-19T12:08:06.215Z,34.90
2019-02-19T12:10:37.242Z,34.60
2019-02-19T12:13:09.281Z,34.20
2019-02-19T12:15:39.716Z,34.10
2019-02-19T12:18:12.117Z,33.60
2019-02-19T12:20:46.189Z,33.50
2019-02-19T12:23:18.707Z,33.30
2019-02-19T12:25:49.232Z,33.60
2019-02-19T12:28:19.835Z,33.50
2019-02-19T12:30:50.581Z,33.30
2019-02-19T12:33:21.118Z,33.10
2019-02-19T12:35:55.416Z,32.90
2019-02-19T12:38:30.142Z,32.80
2019-02-19T12:41:10.025Z,32.60
2019-02-19T12:43:42.494Z,32.50
2019-02-19T12:46:12.825Z,32.20
2019-02-19T12:48:43.450Z,32.00
2019-02-19T12:51:13.977Z,31.80
2019-02-19T12:53:44.283Z,31.70
2019-02-19T12:56:16.737Z,31.40
2019-02-19T12:58:47.105Z,31.40
2019-02-19T13:01:17.435Z,31.40
2019-02-19T13:03:56.355Z,31.10
2019-02-19T13:06:50.312Z,31.70
2019-02-19T13:09:20.718Z,32.70
2019-02-19T13:11:53.134Z,33.90
2019-02-19T13:14:23.773Z,34.20
2019-02-19T13:16:56.715Z,34.10
2019-02-19T13:19:27.106Z,34.00
2019-02-19T13:21:57.464Z,33.50
2019-02-19T13:24:27.775Z,34.00
2019-02-19T13:26:58.055Z,33.70
2019-02-19T13:29:28.347Z,33.70
2019-02-19T13:31:58.954Z,33.10
2019-02-19T13:34:29.196Z,32.70
2019-02-19T13:36:59.453Z,32.60
2019-02-19T13:39:29.745Z,32.30
2019-02-19T13:42:00.030Z,32.10
2019-02-19T13:44:32.064Z,31.70
2019-02-19T13:47:03.396Z,31.70
2019-02-19T13:49:34.127Z,31.60
2019-02-19T13:52:12.569Z,31.50
2019-02-19T13:54:49.033Z,31.30
2019-02-19T13:57:19.399Z,31.10
2019-02-19T13:59:50.181Z,30.80
2019-02-19T14:02:20.820Z,30.80
2019-02-19T14:04:53.960Z,30.80
2019-02-19T14:07:30.185Z,30.80
2019-02-19T14:10:04.845Z,30.50
2019-02-19T14:12:35.687Z,32.10
2019-02-19T14:15:36.836Z,32.70
2019-02-19T14:18:13.363Z,33.30
2019-02-19T14:21:00.915Z,33.10
2019-02-19T14:23:48.055Z,33.40
2019-02-19T14:26:37.088Z,34.80
2019-02-19T14:29:32.240Z,35.50
2019-02-19T14:35:02.148Z,36.40
2019-02-19T14:37:52.169Z,36.70
2019-02-19T14:46:24.304Z,37.90
2019-02-19T14:49:13.605Z,37.90
2019-02-19T14:51:44.884Z,37.90
